Time;durP1;ratioP1;P1;durP2;ratioP2;P2;SDS_P1;SDS_P2;PMS_P1;PMS_P2;Temp;Humidity;BMP_temperature;BMP_pressure;BME280_temperature;BME280_humidity;BME280_pressure;Samples;Min_cycle;Max_cycle;Signal;HPM_P1;HPM_P2
2023/12/09 00:00:42;;;;;;;100.67;21.83;;;1.70;99.90;;;;;;5062762;28;20363;-49
2023/12/09 00:03:10;;;;;;;62.70;17.87;;;1.70;99.90;;;;;;5062038;28;20221;-52
2023/12/09 00:05:37;;;;;;;75.57;19.83;;;1.70;99.90;;;;;;5054456;28;20198;-49
2023/12/09 00:08:04;;;;;;;98.00;20.87;;;1.70;99.90;;;;;;5063960;28;20303;-49
2023/12/09 00:10:32;;;;;;;57.23;20.47;;;1.70;99.90;;;;;;5021839;28;20312;-47
2023/12/09 00:12:58;;;;;;;79.67;21.27;;;1.70;99.90;;;;;;5059598;28;20687;-49
2023/12/09 00:15:25;;;;;;;66.93;19.53;;;1.80;99.90;;;;;;5060111;28;20252;-48
2023/12/09 00:17:52;;;;;;;73.80;18.37;;;1.70;99.90;;;;;;5062386;28;20320;-54
2023/12/09 00:20:20;;;;;;;61.87;19.73;;;1.80;99.90;;;;;;5051683;28;20252;-53
2023/12/09 00:22:47;;;;;;;62.50;18.83;;;1.70;99.90;;;;;;5059120;28;20194;-52
2023/12/09 00:25:14;;;;;;;61.50;19.00;;;1.70;99.90;;;;;;5062104;28;20691;-53
2023/12/09 00:27:41;;;;;;;72.30;19.07;;;1.70;99.90;;;;;;5032711;28;20268;-52
2023/12/09 00:30:08;;;;;;;66.70;18.83;;;1.70;99.90;;;;;;5063688;28;20210;-50
2023/12/09 00:32:35;;;;;;;64.87;18.33;;;1.70;99.90;;;;;;5059139;28;20209;-49
2023/12/09 00:35:02;;;;;;;70.90;18.60;;;1.80;99.90;;;;;;5054532;28;20267;-51
2023/12/09 00:37:31;;;;;;;82.50;19.40;;;1.70;99.90;;;;;;5059902;28;20211;-51
2023/12/09 00:39:57;;;;;;;65.10;17.67;;;1.80;99.90;;;;;;5062254;28;20222;-52
2023/12/09 00:42:24;;;;;;;85.73;19.73;;;1.70;99.90;;;;;;5030496;28;20198;-52
2023/12/09 00:44:51;;;;;;;65.73;18.70;;;1.80;99.90;;;;;;5063056;28;20226;-50
2023/12/09 00:47:18;;;;;;;61.93;17.63;;;1.80;99.90;;;;;;5061103;28;20215;-53
2023/12/09 00:49:45;;;;;;;51.77;16.70;;;1.80;99.90;;;;;;5062217;28;20194;-49
2023/12/09 00:52:12;;;;;;;69.50;18.93;;;1.80;99.90;;;;;;5052819;28;20256;-50
2023/12/09 00:54:40;;;;;;;63.83;17.10;;;1.80;99.90;;;;;;5061073;28;20194;-49
2023/12/09 00:57:07;;;;;;;77.97;19.30;;;1.80;99.90;;;;;;5058649;28;20223;-53
2023/12/09 00:59:34;;;;;;;88.33;19.90;;;1.80;99.90;;;;;;5038314;28;20202;-49
2023/12/09 01:02:01;;;;;;;66.73;19.23;;;1.80;99.90;;;;;;5062913;28;20233;-53
2023/12/09 01:04:28;;;;;;;72.20;18.03;;;1.90;99.90;;;;;;5059148;28;20956;-49
2023/12/09 01:06:55;;;;;;;75.10;17.97;;;1.80;99.90;;;;;;5054037;28;20218;-49
2023/12/09 01:09:22;;;;;;;56.20;16.63;;;1.90;99.90;;;;;;5059565;28;20198;-53
2023/12/09 01:11:50;;;;;;;50.10;16.67;;;1.80;99.90;;;;;;5062471;28;20727;-50
2023/12/09 01:14:16;;;;;;;93.00;18.10;;;1.80;99.90;;;;;;5030761;28;20256;-53
2023/12/09 01:16:43;;;;;;;65.53;17.77;;;1.90;99.90;;;;;;5061221;28;20206;-50
2023/12/09 01:19:10;;;;;;;55.17;16.97;;;1.90;99.90;;;;;;5061755;28;20198;-52
2023/12/09 01:21:37;;;;;;;49.13;17.17;;;1.90;99.90;;;;;;5050609;28;20304;-50
2023/12/09 01:24:05;;;;;;;61.00;17.10;;;1.90;99.90;;;;;;5062195;28;20268;-51
2023/12/09 01:26:31;;;;;;;53.67;17.40;;;1.90;99.90;;;;;;5058761;28;20211;-48
2023/12/09 01:29:02;;;;;;;43.80;16.00;;;1.90;99.90;;;;;;5061131;28;20260;-50
2023/12/09 01:31:29;;;;;;;46.37;15.67;;;1.90;99.90;;;;;;5029000;28;20199;-49
2023/12/09 01:33:55;;;;;;;53.10;15.37;;;2.00;99.90;;;;;;5061846;28;20240;-49
2023/12/09 01:36:22;;;;;;;56.77;15.10;;;1.90;99.90;;;;;;5058845;28;20215;-52
2023/12/09 01:38:49;;;;;;;59.17;15.53;;;2.00;99.90;;;;;;5052862;28;20206;-52
2023/12/09 01:41:16;;;;;;;47.73;14.87;;;2.00;99.90;;;;;;5060355;28;20191;-53
2023/12/09 01:43:47;;;;;;;60.03;17.37;;;2.00;99.90;;;;;;5058839;28;20899;-51
2023/12/09 01:46:17;;;;;;;68.90;17.47;;;2.00;99.90;;;;;;5028305;28;20263;-53
2023/12/09 01:48:44;;;;;;;67.27;17.30;;;2.00;99.90;;;;;;5058692;28;20209;-48
2023/12/09 01:51:11;;;;;;;53.17;16.10;;;2.00;99.90;;;;;;5061087;28;20198;-50
2023/12/09 01:53:38;;;;;;;74.10;18.37;;;2.00;99.90;;;;;;5050946;28;20190;-52
2023/12/09 01:56:10;;;;;;;52.47;15.57;;;2.00;99.90;;;;;;5061345;28;20226;-50
2023/12/09 01:58:38;;;;;;;64.33;16.17;;;2.10;99.90;;;;;;5059585;28;20195;-52
2023/12/09 02:01:06;;;;;;;72.73;16.43;;;2.00;99.90;;;;;;5029273;28;20678;-54
2023/12/09 02:03:34;;;;;;;74.90;16.43;;;2.10;99.90;;;;;;5058518;28;20182;-51
2023/12/09 02:06:01;;;;;;;69.57;17.87;;;2.10;99.90;;;;;;5048862;28;20222;-52
2023/12/09 02:08:27;;;;;;;90.30;17.67;;;2.10;99.90;;;;;;5039920;28;20300;-48
2023/12/09 02:11:03;;;;;;;78.67;16.50;;;2.10;99.90;;;;;;5062035;28;20568;-50
2023/12/09 02:13:40;;;;;;;72.13;16.17;;;2.10;99.90;;;;;;5057183;28;20260;-51
2023/12/09 02:16:12;;;;;;;91.93;18.83;;;2.10;99.90;;;;;;5031159;28;20233;-50
2023/12/09 02:18:42;;;;;;;90.93;17.23;;;2.10;99.90;;;;;;5046945;28;20195;-52
2023/12/09 02:21:09;;;;;;;122.07;21.00;;;2.20;99.90;;;;;;5057573;28;20206;-51
2023/12/09 02:23:37;;;;;;;113.50;19.97;;;2.20;99.90;;;;;;5060529;28;20205;-53
2023/12/09 02:26:14;;;;;;;69.33;17.20;;;2.10;99.90;;;;;;5047911;28;20225;-51
2023/12/09 02:28:46;;;;;;;97.90;17.17;;;2.20;99.90;;;;;;5057565;28;20273;-51
2023/12/09 02:31:18;;;;;;;59.37;15.90;;;2.20;99.90;;;;;;5029692;28;20214;-48
2023/12/09 02:33:45;;;;;;;102.53;21.27;;;2.20;99.90;;;;;;5060925;28;20226;-51
2023/12/09 02:36:17;;;;;;;98.83;18.60;;;2.20;99.90;;;;;;5059094;28;20960;-51
2023/12/09 02:38:46;;;;;;;97.50;18.67;;;2.30;99.90;;;;;;5053252;28;20538;-52
2023/12/09 02:41:14;;;;;;;136.07;20.60;;;2.30;99.90;;;;;;5054988;28;20252;-50
2023/12/09 02:43:41;;;;;;;116.07;21.07;;;2.30;99.90;;;;;;5061141;28;20202;-49
2023/12/09 02:46:12;;;;;;;116.07;19.97;;;2.30;99.90;;;;;;5058229;28;20233;-50
2023/12/09 02:48:39;;;;;;;117.47;19.57;;;2.30;99.90;;;;;;5032453;28;20219;-49
2023/12/09 02:51:06;;;;;;;134.53;21.50;;;2.30;99.90;;;;;;5058116;28;20947;-52
2023/12/09 02:53:33;;;;;;;101.87;18.63;;;2.30;99.90;;;;;;5061656;28;20277;-51
2023/12/09 02:56:02;;;;;;;88.70;19.97;;;2.30;99.90;;;;;;5048756;28;20237;-50
2023/12/09 02:58:28;;;;;;;127.50;20.60;;;2.40;99.90;;;;;;5061731;28;20186;-53
2023/12/09 03:00:55;;;;;;;102.33;19.63;;;2.40;99.90;;;;;;5056216;28;20313;-53
2023/12/09 03:03:22;;;;;;;92.23;18.80;;;2.30;99.90;;;;;;5031637;28;20288;-48
2023/12/09 03:05:49;;;;;;;86.40;17.57;;;2.40;99.90;;;;;;5059324;28;20241;-51
2023/12/09 03:08:15;;;;;;;100.27;19.47;;;2.40;99.90;;;;;;5060637;28;20198;-50
2023/12/09 03:10:42;;;;;;;84.87;17.07;;;2.40;99.90;;;;;;5052746;28;20288;-54
2023/12/09 03:13:11;;;;;;;83.67;18.53;;;2.40;99.90;;;;;;5062306;28;20271;-52
2023/12/09 03:15:38;;;;;;;134.77;21.10;;;2.50;99.90;;;;;;5064777;28;20256;-49
2023/12/09 03:18:04;;;;;;;111.83;20.13;;;2.40;99.90;;;;;;5031253;28;20289;-53
2023/12/09 03:20:31;;;;;;;125.10;20.13;;;2.50;99.90;;;;;;5064815;28;20695;-50
2023/12/09 03:22:58;;;;;;;125.50;19.60;;;2.50;99.90;;;;;;5060717;28;20195;-54
2023/12/09 03:25:25;;;;;;;141.73;22.57;;;2.50;99.90;;;;;;5052124;28;20226;-50
2023/12/09 03:27:52;;;;;;;72.33;17.70;;;2.50;99.90;;;;;;5061404;28;20276;-53
2023/12/09 03:30:20;;;;;;;136.83;20.17;;;2.50;99.90;;;;;;5063715;28;20263;-50
2023/12/09 03:32:47;;;;;;;156.10;23.40;;;2.50;99.90;;;;;;5050150;28;20773;-54
2023/12/09 03:35:14;;;;;;;182.77;24.00;;;2.50;99.90;;;;;;5048999;28;20269;-54
2023/12/09 03:37:41;;;;;;;128.90;21.60;;;2.50;99.90;;;;;;5064201;28;20695;-54
2023/12/09 03:40:10;;;;;;;72.27;18.43;;;2.60;99.90;;;;;;5051720;28;20211;-50
2023/12/09 03:42:36;;;;;;;141.90;20.63;;;2.50;99.90;;;;;;5065158;28;20195;-49
2023/12/09 03:45:04;;;;;;;120.57;19.97;;;2.50;99.90;;;;;;5059963;28;20210;-51
2023/12/09 03:47:32;;;;;;;114.80;20.07;;;2.50;99.90;;;;;;5064245;28;20288;-53
2023/12/09 03:49:59;;;;;;;133.67;21.50;;;2.50;99.90;;;;;;5031169;28;20256;-53
2023/12/09 03:52:24;;;;;;;105.13;20.00;;;2.50;99.90;;;;;;5064886;28;20845;-48
2023/12/09 03:54:51;;;;;;;108.50;20.50;;;2.60;99.90;;;;;;5061642;28;20189;-53
2023/12/09 03:57:18;;;;;;;63.97;17.33;;;2.60;99.90;;;;;;5054321;28;20241;-50
2023/12/09 03:59:45;;;;;;;125.53;20.73;;;2.60;99.90;;;;;;5063123;28;20191;-54
2023/12/09 04:02:12;;;;;;;149.73;23.13;;;2.50;99.90;;;;;;5061941;28;20824;-52
2023/12/09 04:04:41;;;;;;;154.67;24.27;;;2.60;99.90;;;;;;5063866;28;20202;-51
2023/12/09 04:07:08;;;;;;;119.07;21.93;;;2.60;99.90;;;;;;5038951;28;20864;-54
2023/12/09 04:09:35;;;;;;;101.33;20.40;;;2.60;99.90;;;;;;5064189;28;20722;-51
2023/12/09 04:12:01;;;;;;;110.47;22.27;;;2.60;99.90;;;;;;5047263;28;21258;-52
2023/12/09 04:14:28;;;;;;;147.93;23.33;;;2.60;99.90;;;;;;5064113;28;20691;-49
2023/12/09 04:16:55;;;;;;;87.83;20.00;;;2.70;99.90;;;;;;5059992;28;20738;-51
2023/12/09 04:19:22;;;;;;;133.40;21.57;;;2.60;99.90;;;;;;5059418;28;20206;-52
2023/12/09 04:21:51;;;;;;;147.70;23.50;;;2.60;99.90;;;;;;5030501;28;20218;-54
2023/12/09 04:24:18;;;;;;;134.10;21.73;;;2.60;99.90;;;;;;5062628;28;20182;-51
2023/12/09 04:26:45;;;;;;;136.13;21.07;;;2.70;99.90;;;;;;5059769;28;20275;-52
2023/12/09 04:29:12;;;;;;;79.63;19.37;;;2.70;99.90;;;;;;5045718;28;20203;-54
2023/12/09 04:31:39;;;;;;;149.03;23.93;;;2.70;99.90;;;;;;5057636;28;20906;-52
2023/12/09 04:34:06;;;;;;;100.63;21.60;;;2.70;99.90;;;;;;5062642;28;20201;-52
2023/12/09 04:36:33;;;;;;;93.77;21.13;;;2.70;99.90;;;;;;5028643;28;20215;-53
2023/12/09 04:39:01;;;;;;;122.77;21.63;;;2.70;99.90;;;;;;5061486;28;20221;-49
2023/12/09 04:41:28;;;;;;;156.00;24.03;;;2.80;99.90;;;;;;5060584;28;20649;-54
2023/12/09 04:43:55;;;;;;;123.47;23.53;;;2.80;99.90;;;;;;5053561;28;20230;-51
2023/12/09 04:46:22;;;;;;;164.57;26.33;;;2.80;99.90;;;;;;5061832;28;20999;-55
2023/12/09 04:48:49;;;;;;;121.77;23.50;;;2.90;99.90;;;;;;5059757;28;20187;-49
2023/12/09 04:51:16;;;;;;;121.13;23.63;;;2.90;99.90;;;;;;5060095;28;20553;-54
2023/12/09 04:53:43;;;;;;;137.80;23.83;;;2.90;99.90;;;;;;5033851;28;20199;-51
2023/12/09 04:56:12;;;;;;;144.57;25.20;;;2.90;99.90;;;;;;5062976;28;20272;-50
2023/12/09 04:58:39;;;;;;;149.27;24.87;;;2.90;99.90;;;;;;5049447;28;20829;-52
2023/12/09 05:01:06;;;;;;;122.40;22.67;;;3.00;99.90;;;;;;5045578;28;20276;-53
2023/12/09 05:03:33;;;;;;;118.47;23.57;;;3.00;99.90;;;;;;5058832;28;20248;-54
2023/12/09 05:06:00;;;;;;;121.40;23.93;;;3.00;99.90;;;;;;5054755;28;20311;-51
2023/12/09 05:08:27;;;;;;;113.13;22.23;;;3.00;99.90;;;;;;5031741;28;20230;-54
2023/12/09 05:10:54;;;;;;;109.73;21.33;;;3.00;99.90;;;;;;5061714;28;20868;-50
2023/12/09 05:13:23;;;;;;;105.60;22.70;;;3.10;99.90;;;;;;5059351;28;20206;-52
2023/12/09 05:15:50;;;;;;;132.37;25.93;;;3.10;99.90;;;;;;5055781;28;20912;-52
2023/12/09 05:18:17;;;;;;;129.50;25.23;;;3.10;99.90;;;;;;5062268;28;20198;-54
2023/12/09 05:20:45;;;;;;;128.43;26.67;;;3.10;99.90;;;;;;5059336;28;20881;-50
2023/12/09 05:23:11;;;;;;;137.47;24.50;;;3.10;99.90;;;;;;5025859;28;20289;-52
2023/12/09 05:25:38;;;;;;;120.70;24.63;;;3.10;99.90;;;;;;5057380;28;20210;-51
2023/12/09 05:28:05;;;;;;;167.63;27.00;;;3.10;99.90;;;;;;5062429;28;20203;-54
2023/12/09 05:30:33;;;;;;;144.77;26.87;;;3.20;99.90;;;;;;5049545;28;20781;-54
2023/12/09 05:33:00;;;;;;;128.23;24.30;;;3.20;99.90;;;;;;5062256;28;20251;-50
2023/12/09 05:35:27;;;;;;;121.70;24.03;;;3.20;99.90;;;;;;5060310;28;20202;-51
2023/12/09 05:37:54;;;;;;;84.37;23.27;;;3.20;99.90;;;;;;5052795;28;20223;-48
2023/12/09 05:40:21;;;;;;;86.43;24.03;;;3.20;99.90;;;;;;5034164;28;20198;-56
2023/12/09 05:42:47;;;;;;;99.57;22.00;;;3.20;99.90;;;;;;5059735;28;20238;-55
2023/12/09 05:45:14;;;;;;;125.03;24.93;;;3.20;99.90;;;;;;5049974;28;20221;-50
2023/12/09 05:47:42;;;;;;;133.77;24.97;;;3.30;99.90;;;;;;5058624;28;20221;-54
2023/12/09 05:50:10;;;;;;;173.03;28.77;;;3.30;99.90;;;;;;5062444;28;20226;-53
2023/12/09 05:52:37;;;;;;;144.97;26.77;;;3.30;99.90;;;;;;5050404;28;20199;-50
2023/12/09 05:55:05;;;;;;;172.17;27.40;;;3.30;99.90;;;;;;5032692;28;20234;-49
2023/12/09 05:57:31;;;;;;;128.97;24.67;;;3.30;99.90;;;;;;5058776;28;20276;-55
2023/12/09 05:59:58;;;;;;;136.43;28.50;;;3.30;99.90;;;;;;5052753;28;20199;-49
2023/12/09 06:02:25;;;;;;;154.77;27.57;;;3.30;99.90;;;;;;5061177;28;20199;-55
2023/12/09 06:04:53;;;;;;;162.80;27.10;;;3.40;99.90;;;;;;5060497;28;21024;-52
2023/12/09 06:07:20;;;;;;;122.83;25.57;;;3.30;99.90;;;;;;5040248;28;20280;-48
2023/12/09 06:09:47;;;;;;;110.27;24.40;;;3.40;99.90;;;;;;5024507;28;20291;-57
2023/12/09 06:12:14;;;;;;;87.93;24.00;;;3.40;99.90;;;;;;5041897;28;20207;-52
2023/12/09 06:14:43;;;;;;;118.73;24.77;;;3.40;99.90;;;;;;5061827;28;20199;-51
2023/12/09 06:17:10;;;;;;;141.33;26.57;;;3.40;99.90;;;;;;5044394;28;20947;-51
2023/12/09 06:19:36;;;;;;;113.90;23.57;;;3.50;99.90;;;;;;5062254;28;20268;-51
2023/12/09 06:22:05;;;;;;;83.83;22.50;;;3.50;99.90;;;;;;5057561;28;20260;-49
2023/12/09 06:24:32;;;;;;;108.83;23.80;;;3.50;99.90;;;;;;5048672;28;20210;-52
2023/12/09 06:26:58;;;;;;;106.97;25.90;;;3.50;99.90;;;;;;5016291;28;20256;-58
2023/12/09 06:29:25;;;;;;;96.13;22.50;;;3.50;99.90;;;;;;5060761;28;20203;-48
2023/12/09 06:31:52;;;;;;;71.93;22.80;;;3.60;99.90;;;;;;5045157;28;20823;-57
2023/12/09 06:34:19;;;;;;;90.03;23.23;;;3.50;99.90;;;;;;5055112;28;20888;-47
2023/12/09 06:36:46;;;;;;;83.17;22.70;;;3.60;99.90;;;;;;5058664;28;20226;-56
2023/12/09 06:39:14;;;;;;;80.33;22.93;;;3.60;99.90;;;;;;5050482;28;20899;-47
2023/12/09 06:41:41;;;;;;;100.50;23.57;;;3.60;99.90;;;;;;5027815;28;20281;-57
2023/12/09 06:44:08;;;;;;;98.20;23.83;;;3.60;99.90;;;;;;5055485;28;20256;-48
2023/12/09 06:46:38;;;;;;;101.27;25.30;;;3.70;99.90;;;;;;5052464;28;20242;-51
2023/12/09 06:49:05;;;;;;;84.90;22.80;;;3.70;99.90;;;;;;5053486;28;20195;-51
2023/12/09 06:51:32;;;;;;;94.33;24.00;;;3.70;99.90;;;;;;5063931;28;20190;-52
2023/12/09 06:54:00;;;;;;;100.80;24.43;;;3.60;99.90;;;;;;5040752;28;20218;-52
2023/12/09 06:56:28;;;;;;;98.67;24.63;;;3.70;99.90;;;;;;5049146;28;20692;-57
2023/12/09 06:58:55;;;;;;;82.47;23.80;;;3.70;99.90;;;;;;5034638;28;20206;-58
2023/12/09 07:01:22;;;;;;;87.50;23.17;;;3.70;99.90;;;;;;5055578;28;20203;-49
2023/12/09 07:03:50;;;;;;;97.60;25.17;;;3.70;99.90;;;;;;5060787;28;20263;-49
2023/12/09 07:06:18;;;;;;;96.07;23.53;;;3.70;99.90;;;;;;5061084;28;20487;-52
2023/12/09 07:08:45;;;;;;;91.63;23.97;;;3.80;99.90;;;;;;5061562;28;20941;-48
2023/12/09 07:11:12;;;;;;;81.93;24.30;;;3.70;99.90;;;;;;5056657;28;20199;-51
2023/12/09 07:13:40;;;;;;;92.13;25.23;;;3.80;99.90;;;;;;5032661;28;20203;-55
2023/12/09 07:16:09;;;;;;;101.67;26.33;;;3.80;99.90;;;;;;5056573;28;20214;-52
2023/12/09 07:18:40;;;;;;;95.87;24.10;;;3.70;99.90;;;;;;5053114;28;20223;-56
2023/12/09 07:21:07;;;;;;;74.50;23.07;;;3.80;99.90;;;;;;5062269;28;20206;-54
2023/12/09 07:23:34;;;;;;;86.33;24.60;;;3.80;99.90;;;;;;5057738;28;20190;-58
2023/12/09 07:26:01;;;;;;;104.87;26.93;;;3.80;99.90;;;;;;5055863;28;20276;-51
2023/12/09 07:28:28;;;;;;;94.30;26.07;;;3.90;99.90;;;;;;5034822;28;20615;-56
2023/12/09 07:30:57;;;;;;;74.27;22.30;;;3.90;99.90;;;;;;5041562;28;20884;-57
2023/12/09 07:33:24;;;;;;;106.70;25.93;;;3.80;99.90;;;;;;5048494;28;20195;-51
2023/12/09 07:35:50;;;;;;;106.43;24.10;;;3.90;99.90;;;;;;5053138;28;20201;-55
2023/12/09 07:38:18;;;;;;;86.20;24.67;;;3.90;99.90;;;;;;5061595;28;20950;-48
2023/12/09 07:40:44;;;;;;;73.20;23.83;;;4.00;99.90;;;;;;5056643;28;20641;-51
2023/12/09 07:43:11;;;;;;;94.93;24.23;;;4.00;99.90;;;;;;5030635;28;20257;-50
2023/12/09 07:45:38;;;;;;;84.03;25.07;;;4.00;99.90;;;;;;5051568;28;20230;-48
2023/12/09 07:48:07;;;;;;;81.87;22.37;;;4.00;99.90;;;;;;5049925;28;20202;-53
2023/12/09 07:50:35;;;;;;;77.53;23.83;;;4.00;99.90;;;;;;5064865;28;20221;-49
2023/12/09 07:53:02;;;;;;;77.67;22.60;;;4.10;99.90;;;;;;5050671;28;20207;-56
2023/12/09 07:55:29;;;;;;;77.07;23.90;;;4.10;99.90;;;;;;5054915;28;20256;-51
2023/12/09 07:57:56;;;;;;;77.47;22.77;;;4.10;99.90;;;;;;5059295;28;20211;-57
2023/12/09 08:00:26;;;;;;;94.57;23.80;;;4.10;99.90;;;;;;5033906;28;20891;-49
2023/12/09 08:02:54;;;;;;;69.10;21.83;;;4.20;99.90;;;;;;5040287;28;20214;-48
2023/12/09 08:05:23;;;;;;;67.33;20.50;;;4.10;99.90;;;;;;5056725;28;20244;-48
2023/12/09 08:07:50;;;;;;;80.33;22.67;;;4.20;99.90;;;;;;5051207;28;20238;-49
2023/12/09 08:10:17;;;;;;;58.03;19.93;;;4.20;99.90;;;;;;5055671;28;20199;-52
2023/12/09 08:12:44;;;;;;;68.97;21.00;;;4.30;99.90;;;;;;5049464;28;20589;-56
2023/12/09 08:15:12;;;;;;;72.93;20.93;;;4.20;99.90;;;;;;5032755;28;20207;-48
2023/12/09 08:17:38;;;;;;;58.00;19.07;;;4.30;99.90;;;;;;5047274;28;20246;-58
2023/12/09 08:20:08;;;;;;;53.20;18.60;;;4.30;99.90;;;;;;5058534;28;20264;-49
2023/12/09 08:22:38;;;;;;;58.03;19.83;;;4.40;99.90;;;;;;5056790;28;20248;-56
2023/12/09 08:25:07;;;;;;;53.30;20.03;;;4.40;99.90;;;;;;5059479;28;20190;-48
2023/12/09 08:27:33;;;;;;;47.87;18.43;;;4.50;99.90;;;;;;5051903;28;20219;-57
2023/12/09 08:30:00;;;;;;;53.83;19.90;;;4.50;99.90;;;;;;5023089;28;20277;-53
2023/12/09 08:32:27;;;;;;;52.13;19.33;;;4.40;99.90;;;;;;5062573;28;20245;-51
2023/12/09 08:34:54;;;;;;;60.57;20.00;;;4.40;99.90;;;;;;5046000;28;20991;-50
2023/12/09 08:37:25;;;;;;;43.77;18.23;;;4.50;99.90;;;;;;5049998;28;20563;-52
2023/12/09 08:39:55;;;;;;;53.77;18.93;;;4.50;99.90;;;;;;5040089;28;20300;-48
2023/12/09 08:42:22;;;;;;;52.93;19.07;;;4.50;99.90;;;;;;5047644;28;20213;-53
2023/12/09 08:44:49;;;;;;;46.30;18.23;;;4.50;99.90;;;;;;5057345;28;20282;-51
2023/12/09 08:47:16;;;;;;;43.20;18.93;;;4.50;99.90;;;;;;5029292;28;20254;-52
2023/12/09 08:49:43;;;;;;;47.83;17.40;;;4.50;99.90;;;;;;5050806;28;20512;-50
2023/12/09 08:52:10;;;;;;;51.90;18.07;;;4.50;99.90;;;;;;5048811;28;20202;-52
2023/12/09 08:54:37;;;;;;;48.30;17.53;;;4.50;99.90;;;;;;5048098;28;20712;-55
2023/12/09 08:57:06;;;;;;;58.00;19.63;;;4.50;99.90;;;;;;5041168;28;20222;-48
2023/12/09 08:59:32;;;;;;;54.33;18.33;;;4.60;99.90;;;;;;5063050;28;20211;-51
2023/12/09 09:01:59;;;;;;;56.80;18.20;;;4.60;99.90;;;;;;5022681;28;20756;-56
2023/12/09 09:04:26;;;;;;;51.53;17.80;;;4.60;99.90;;;;;;5049892;28;20226;-52
2023/12/09 09:06:53;;;;;;;48.23;17.83;;;4.60;99.90;;;;;;5050019;28;20246;-56
2023/12/09 09:09:20;;;;;;;49.00;18.17;;;4.60;99.90;;;;;;5049923;28;20195;-52
2023/12/09 09:11:47;;;;;;;52.20;19.50;;;4.60;99.90;;;;;;5051451;28;20202;-56
2023/12/09 09:14:15;;;;;;;48.70;17.53;;;4.60;99.90;;;;;;5051820;28;20955;-49
2023/12/09 09:16:42;;;;;;;44.53;18.10;;;4.60;99.90;;;;;;5031000;28;20218;-56
2023/12/09 09:19:09;;;;;;;53.47;18.23;;;4.70;99.90;;;;;;5048299;28;20207;-51
2023/12/09 09:21:36;;;;;;;46.17;18.50;;;4.70;99.90;;;;;;5059414;28;20199;-49
2023/12/09 09:24:02;;;;;;;37.07;16.17;;;4.70;99.90;;;;;;5048696;28;20844;-53
2023/12/09 09:26:29;;;;;;;46.50;17.93;;;4.70;99.90;;;;;;5044671;28;20214;-52
2023/12/09 09:28:56;;;;;;;42.57;17.80;;;4.70;99.90;;;;;;5049968;28;20198;-47
2023/12/09 09:31:24;;;;;;;41.07;17.93;;;4.70;99.90;;;;;;5062303;28;20616;-48
2023/12/09 09:33:51;;;;;;;42.60;17.03;;;4.70;99.90;;;;;;5028295;28;20190;-51
2023/12/09 09:36:18;;;;;;;44.37;16.93;;;4.80;99.90;;;;;;5053658;28;20246;-47
2023/12/09 09:38:47;;;;;;;39.43;17.20;;;4.70;99.90;;;;;;5049090;28;20198;-55
2023/12/09 09:41:18;;;;;;;44.87;17.50;;;4.80;99.90;;;;;;5054551;28;20302;-48
2023/12/09 09:43:47;;;;;;;40.90;16.40;;;4.80;99.90;;;;;;5050264;28;20673;-55
2023/12/09 09:46:15;;;;;;;35.97;15.27;;;4.80;99.90;;;;;;5053143;28;20226;-49
2023/12/09 09:48:45;;;;;;;42.17;16.30;;;4.80;99.90;;;;;;5027768;28;20214;-55
2023/12/09 09:51:17;;;;;;;38.93;15.93;;;4.80;99.90;;;;;;5049276;28;20214;-47
2023/12/09 09:53:55;;;;;;;49.43;16.97;;;4.80;99.90;;;;;;5047878;28;20197;-55
2023/12/09 09:56:22;;;;;;;41.23;15.83;;;4.80;99.90;;;;;;5044351;28;20255;-51
2023/12/09 09:58:49;;;;;;;43.87;16.57;;;4.80;99.90;;;;;;5049442;28;20210;-52
2023/12/09 10:01:18;;;;;;;37.53;15.80;;;4.80;99.90;;;;;;5051118;28;20198;-49
2023/12/09 10:03:46;;;;;;;42.17;15.60;;;4.80;99.90;;;;;;5026487;28;20575;-55
2023/12/09 10:06:14;;;;;;;33.67;15.57;;;4.80;99.90;;;;;;5052479;28;20253;-48
2023/12/09 10:08:41;;;;;;;37.53;15.80;;;4.80;99.90;;;;;;5046416;28;20578;-55
2023/12/09 10:11:08;;;;;;;36.90;15.33;;;4.90;99.90;;;;;;5045635;28;20194;-50
2023/12/09 10:13:35;;;;;;;32.03;14.30;;;4.90;99.90;;;;;;5045595;28;20282;-56
2023/12/09 10:16:02;;;;;;;32.83;14.93;;;4.80;99.90;;;;;;5036760;28;20215;-55
2023/12/09 10:18:31;;;;;;;39.70;14.93;;;4.90;99.90;;;;;;5029266;28;20218;-48
2023/12/09 10:20:59;;;;;;;35.53;15.77;;;4.90;99.90;;;;;;5053418;28;20331;-56
2023/12/09 10:23:26;;;;;;;42.23;15.60;;;4.90;99.90;;;;;;5055024;28;20230;-52
2023/12/09 10:25:54;;;;;;;36.33;14.60;;;4.90;99.90;;;;;;5038206;28;20234;-55
2023/12/09 10:28:20;;;;;;;32.63;14.90;;;5.00;99.90;;;;;;5046856;28;20222;-49
2023/12/09 10:30:48;;;;;;;31.10;14.27;;;5.00;99.90;;;;;;5041046;28;20203;-47
2023/12/09 10:33:15;;;;;;;32.67;13.67;;;5.00;99.90;;;;;;5027614;28;20203;-52
2023/12/09 10:35:42;;;;;;;34.80;14.93;;;5.10;99.90;;;;;;5061999;28;20199;-47
2023/12/09 10:38:10;;;;;;;31.03;13.57;;;5.10;99.90;;;;;;5047970;28;20205;-56
2023/12/09 10:40:38;;;;;;;31.67;13.83;;;5.10;99.90;;;;;;5039378;28;20256;-49
2023/12/09 10:43:04;;;;;;;24.83;12.27;;;5.10;99.90;;;;;;5042134;28;20199;-55
2023/12/09 10:45:32;;;;;;;26.93;12.90;;;5.10;99.90;;;;;;5051500;28;20669;-50
2023/12/09 10:47:59;;;;;;;29.33;13.60;;;5.20;99.90;;;;;;5059633;28;20707;-55
2023/12/09 10:50:26;;;;;;;28.77;12.83;;;5.20;99.90;;;;;;5030372;28;20191;-53
2023/12/09 10:52:53;;;;;;;29.33;13.07;;;5.20;99.90;;;;;;5051885;28;20248;-54
2023/12/09 10:55:21;;;;;;;29.30;13.03;;;5.30;99.90;;;;;;5038858;28;20210;-50
2023/12/09 10:57:50;;;;;;;23.13;12.37;;;5.20;99.90;;;;;;5046131;28;20219;-51
2023/12/09 11:00:18;;;;;;;30.57;13.13;;;5.20;99.90;;;;;;5048748;28;20336;-48
2023/12/09 11:02:47;;;;;;;28.47;14.13;;;5.20;99.90;;;;;;5048739;28;20207;-49
2023/12/09 11:05:14;;;;;;;30.80;14.20;;;5.20;99.90;;;;;;5019328;28;21974;-48
2023/12/09 11:07:44;;;;;;;27.87;13.03;;;5.20;99.90;;;;;;5060420;28;20214;-53
2023/12/09 11:10:11;;;;;;;29.23;13.60;;;5.20;99.90;;;;;;5044826;28;20806;-48
2023/12/09 11:12:41;;;;;;;29.33;13.90;;;5.10;99.90;;;;;;5026288;28;20195;-50
2023/12/09 11:15:19;;;;;;;29.90;13.77;;;5.10;99.90;;;;;;5045911;28;20209;-56
2023/12/09 11:17:47;;;;;;;22.43;12.57;;;5.10;99.90;;;;;;5047992;28;20211;-50
2023/12/09 11:20:16;;;;;;;34.33;13.30;;;5.10;99.90;;;;;;5054435;28;20190;-52
2023/12/09 11:22:45;;;;;;;29.73;12.87;;;5.10;99.90;;;;;;5000126;28;20282;-55
2023/12/09 11:25:19;;;;;;;33.10;14.10;;;5.10;99.90;;;;;;4939014;28;20229;-48
2023/12/09 11:27:50;;;;;;;29.90;13.83;;;5.10;99.90;;;;;;4966305;28;20224;-50
2023/12/09 11:30:30;;;;;;;25.77;12.07;;;5.20;99.90;;;;;;4985626;28;20259;-55
2023/12/09 11:32:57;;;;;;;23.30;12.27;;;5.10;99.90;;;;;;4991445;28;20212;-49
2023/12/09 11:35:25;;;;;;;30.57;13.60;;;5.10;99.90;;;;;;4994860;28;20238;-53
2023/12/09 11:37:54;;;;;;;27.23;12.00;;;5.10;99.90;;;;;;4974124;28;20221;-49
2023/12/09 11:40:21;;;;;;;30.03;12.97;;;5.20;99.90;;;;;;4993733;28;20618;-54
2023/12/09 11:42:50;;;;;;;26.47;12.90;;;5.20;99.90;;;;;;4977191;28;20197;-55
2023/12/09 11:45:17;;;;;;;25.90;13.50;;;5.20;99.90;;;;;;4991255;28;20259;-53
2023/12/09 11:47:46;;;;;;;30.90;12.70;;;5.20;99.90;;;;;;4988027;28;20292;-50
2023/12/09 11:50:15;;;;;;;27.23;12.83;;;5.20;99.90;;;;;;4999108;28;20675;-54
2023/12/09 11:52:44;;;;;;;31.13;13.93;;;5.30;99.90;;;;;;4971138;28;20949;-49
2023/12/09 11:55:11;;;;;;;27.30;12.90;;;5.30;99.90;;;;;;4989102;28;20209;-52
2023/12/09 11:57:40;;;;;;;27.47;12.33;;;5.30;99.90;;;;;;4978809;28;20310;-50
2023/12/09 12:00:11;;;;;;;25.40;13.97;;;5.20;99.90;;;;;;4985439;28;20201;-49
2023/12/09 12:02:39;;;;;;;31.13;12.83;;;5.20;99.90;;;;;;4977898;28;20205;-51
2023/12/09 12:05:07;;;;;;;23.80;12.20;;;5.20;99.90;;;;;;4997558;28;20707;-51
2023/12/09 12:07:34;;;;;;;21.87;11.97;;;5.20;99.90;;;;;;4971160;28;20220;-48
2023/12/09 12:10:01;;;;;;;24.73;12.03;;;5.20;99.90;;;;;;4990101;28;20590;-58
2023/12/09 12:12:28;;;;;;;23.93;12.23;;;5.10;99.90;;;;;;4982163;28;20243;-48
2023/12/09 12:14:55;;;;;;;19.13;11.67;;;5.10;99.90;;;;;;4993575;28;20228;-56
2023/12/09 12:17:23;;;;;;;21.33;12.13;;;5.10;99.90;;;;;;4993364;28;20915;-48
2023/12/09 12:19:50;;;;;;;23.13;12.03;;;5.10;99.90;;;;;;4988460;28;20208;-52
2023/12/09 12:22:19;;;;;;;22.23;11.13;;;5.10;99.90;;;;;;5001324;28;20196;-54
2023/12/09 12:24:46;;;;;;;21.97;10.63;;;5.00;99.90;;;;;;4966212;28;20212;-52
2023/12/09 12:27:13;;;;;;;26.77;11.90;;;5.00;99.90;;;;;;4979842;28;23852;-48
2023/12/09 12:29:41;;;;;;;22.57;10.67;;;5.00;99.90;;;;;;4994750;28;20197;-51
2023/12/09 12:32:08;;;;;;;18.27;10.33;;;4.90;99.90;;;;;;4989312;28;20193;-50
2023/12/09 12:34:36;;;;;;;21.33;10.43;;;4.90;99.90;;;;;;4987187;28;20211;-51